sensor_id;sensor_type;location;lat;lon;timestamp;pressure;altitude;pressure_sealevel;temperature;humidity
57616;BME280;43816;52.054;-9.494;2024-02-15T00:03:51;99536.88;;;20.47;48.03
57616;BME280;43816;52.054;-9.494;2024-02-15T00:04:01;99577.22;;;20.72;47.93
57616;BME280;43816;52.054;-9.494;2024-02-15T00:04:12;99695.69;;;21.44;48.29
57616;BME280;43816;52.054;-9.494;2024-02-15T00:04:22;99700.56;;;21.49;48.15
57616;BME280;43816;52.054;-9.494;2024-02-15T00:04:32;99674.91;;;21.37;48.10
57616;BME280;43816;52.054;-9.494;2024-02-15T00:04:42;99673.59;;;21.39;48.19
57616;BME280;43816;52.054;-9.494;2024-02-15T00:04:53;99667.94;;;21.34;48.17
57616;BME280;43816;52.054;-9.494;2024-02-15T00:05:03;99692.94;;;21.44;48.03
57616;BME280;43816;52.054;-9.494;2024-02-15T00:05:17;99686.44;;;21.46;48.19
57616;BME280;43816;52.054;-9.494;2024-02-15T00:05:27;99672.38;;;21.35;48.09
57616;BME280;43816;52.054;-9.494;2024-02-15T00:05:37;99693.56;;;21.47;48.12
57616;BME280;43816;52.054;-9.494;2024-02-15T00:05:48;99676.34;;;21.39;48.04
57616;BME280;43816;52.054;-9.494;2024-02-15T00:05:58;99697.81;;;21.49;47.77
57616;BME280;43816;52.054;-9.494;2024-02-15T00:06:08;99693.81;;;21.45;48.11
57616;BME280;43816;52.054;-9.494;2024-02-15T00:06:19;99660.16;;;21.31;47.95
57616;BME280;43816;52.054;-9.494;2024-02-15T00:06:30;99688.09;;;21.47;47.92
57616;BME280;43816;52.054;-9.494;2024-02-15T00:06:40;99680.78;;;21.40;48.12
57616;BME280;43816;52.054;-9.494;2024-02-15T00:06:50;99670.69;;;21.34;48.12
57616;BME280;43816;52.054;-9.494;2024-02-15T00:07:00;99667.94;;;21.34;48.10
57616;BME280;43816;52.054;-9.494;2024-02-15T00:07:11;99700.34;;;21.51;48.13
57616;BME280;43816;52.054;-9.494;2024-02-15T00:07:21;99690.44;;;21.43;48.17
57616;BME280;43816;52.054;-9.494;2024-02-15T00:07:31;99641.06;;;21.18;48.22
57616;BME280;43816;52.054;-9.494;2024-02-15T00:07:41;99684.53;;;21.46;48.11
57616;BME280;43816;52.054;-9.494;2024-02-15T00:07:52;99659.75;;;21.28;48.11
57616;BME280;43816;52.054;-9.494;2024-02-15T00:08:02;99649.25;;;21.24;48.03
57616;BME280;43816;52.054;-9.494;2024-02-15T00:08:13;99674.44;;;21.40;48.23
57616;BME280;43816;52.054;-9.494;2024-02-15T00:08:23;99670.47;;;21.36;48.10
57616;BME280;43816;52.054;-9.494;2024-02-15T00:08:33;99694.88;;;21.51;47.94
57616;BME280;43816;52.054;-9.494;2024-02-15T00:08:44;99680.16;;;21.38;47.95
57616;BME280;43816;52.054;-9.494;2024-02-15T00:08:54;99683.09;;;21.43;48.04
57616;BME280;43816;52.054;-9.494;2024-02-15T00:09:04;99668.56;;;21.36;48.07
57616;BME280;43816;52.054;-9.494;2024-02-15T00:09:14;99670.69;;;21.34;48.10
57616;BME280;43816;52.054;-9.494;2024-02-15T00:09:25;99676.13;;;21.41;48.04
57616;BME280;43816;52.054;-9.494;2024-02-15T00:09:35;99689.59;;;21.49;48.17
57616;BME280;43816;52.054;-9.494;2024-02-15T00:09:46;99671.50;;;21.35;47.89
57616;BME280;43816;52.054;-9.494;2024-02-15T00:09:56;99665.59;;;21.38;48.10
57616;BME280;43816;52.054;-9.494;2024-02-15T00:10:07;99639.38;;;21.17;47.91
57616;BME280;43816;52.054;-9.494;2024-02-15T00:10:17;99668.56;;;21.36;48.27
57616;BME280;43816;52.054;-9.494;2024-02-15T00:10:27;99658.50;;;21.30;48.08
57616;BME280;43816;52.054;-9.494;2024-02-15T00:10:38;99695.47;;;21.53;48.11
57616;BME280;43816;52.054;-9.494;2024-02-15T00:10:48;99688.34;;;21.45;48.03
57616;BME280;43816;52.054;-9.494;2024-02-15T00:10:58;99604.72;;;20.97;47.89
57616;BME280;43816;52.054;-9.494;2024-02-15T00:11:09;99697.19;;;21.54;47.89
57616;BME280;43816;52.054;-9.494;2024-02-15T00:11:19;99685.34;;;21.47;48.01
57616;BME280;43816;52.054;-9.494;2024-02-15T00:11:29;99671.50;;;21.41;47.93
57616;BME280;43816;52.054;-9.494;2024-02-15T00:11:39;99679.47;;;21.43;47.90
57616;BME280;43816;52.054;-9.494;2024-02-15T00:11:50;99689.81;;;21.54;47.86
57616;BME280;43816;52.054;-9.494;2024-02-15T00:12:13;99668.75;;;21.41;48.11
57616;BME280;43816;52.054;-9.494;2024-02-15T00:12:23;99691.69;;;21.54;47.82
57616;BME280;43816;52.054;-9.494;2024-02-15T00:12:54;99692.53;;;21.54;47.85
57616;BME280;43816;52.054;-9.494;2024-02-15T00:13:04;99624.03;;;21.16;47.91
57616;BME280;43816;52.054;-9.494;2024-02-15T00:13:14;99691.69;;;21.54;47.81
57616;BME280;43816;52.054;-9.494;2024-02-15T00:13:25;99684.09;;;21.56;47.97
57616;BME280;43816;52.054;-9.494;2024-02-15T00:14:36;99642.91;;;21.31;47.97
57616;BME280;43816;52.054;-9.494;2024-02-15T00:14:46;99599.03;;;21.05;47.75
57616;BME280;43816;52.054;-9.494;2024-02-15T00:14:56;99675.72;;;21.51;47.82
57616;BME280;43816;52.054;-9.494;2024-02-15T00:15:10;99681.19;;;21.51;47.98
57616;BME280;43816;52.054;-9.494;2024-02-15T00:15:20;99685.16;;;21.55;47.81
57616;BME280;43816;52.054;-9.494;2024-02-15T00:15:31;99660.97;;;21.45;47.88
57616;BME280;43816;52.054;-9.494;2024-02-15T00:15:41;99651.94;;;21.31;47.92
57616;BME280;43816;52.054;-9.494;2024-02-15T00:15:51;99633.69;;;21.25;47.99
57616;BME280;43816;52.054;-9.494;2024-02-15T00:16:02;99679.69;;;21.55;47.72
57616;BME280;43816;52.054;-9.494;2024-02-15T00:16:30;99547.16;;;20.72;47.87
57616;BME280;43816;52.054;-9.494;2024-02-15T00:16:40;99591.25;;;21.02;48.00
57616;BME280;43816;52.054;-9.494;2024-02-15T00:16:50;99678.22;;;21.52;47.90
57616;BME280;43816;52.054;-9.494;2024-02-15T00:17:01;99654.44;;;21.39;47.92
57616;BME280;43816;52.054;-9.494;2024-02-15T00:17:11;99660.75;;;21.40;47.81
57616;BME280;43816;52.054;-9.494;2024-02-15T00:17:21;99662.63;;;21.46;47.78
57616;BME280;43816;52.054;-9.494;2024-02-15T00:17:32;99686.03;;;21.55;47.86
57616;BME280;43816;52.054;-9.494;2024-02-15T00:17:42;99684.09;;;21.56;48.07
57616;BME280;43816;52.054;-9.494;2024-02-15T00:17:52;99671.06;;;21.51;47.85
57616;BME280;43816;52.054;-9.494;2024-02-15T00:18:03;99677.81;;;21.55;47.86
57616;BME280;43816;52.054;-9.494;2024-02-15T00:18:13;99631.38;;;21.22;47.97
57616;BME280;43816;52.054;-9.494;2024-02-15T00:18:24;99680.75;;;21.54;47.75
57616;BME280;43816;52.054;-9.494;2024-02-15T00:18:34;99679.69;;;21.55;47.83
57616;BME280;43816;52.054;-9.494;2024-02-15T00:18:44;99679.69;;;21.55;47.98
57616;BME280;43816;52.054;-9.494;2024-02-15T00:18:55;99650.28;;;21.37;47.74
57616;BME280;43816;52.054;-9.494;2024-02-15T00:19:05;99685.63;;;21.52;47.87
57616;BME280;43816;52.054;-9.494;2024-02-15T00:19:16;99595.03;;;21.01;47.76
57616;BME280;43816;52.054;-9.494;2024-02-15T00:19:26;99680.97;;;21.52;47.81
57616;BME280;43816;52.054;-9.494;2024-02-15T00:19:36;99611.19;;;21.10;47.68
57616;BME280;43816;52.054;-9.494;2024-02-15T00:20:33;99539.41;;;20.69;47.74
57616;BME280;43816;52.054;-9.494;2024-02-15T00:20:43;99673.59;;;21.53;47.55
57616;BME280;43816;52.054;-9.494;2024-02-15T00:21:07;99522.16;;;20.62;47.94
57616;BME280;43816;52.054;-9.494;2024-02-15T00:21:17;99565.41;;;20.85;48.00
57616;BME280;43816;52.054;-9.494;2024-02-15T00:21:47;99670.44;;;21.56;47.95
57616;BME280;43816;52.054;-9.494;2024-02-15T00:21:58;99607.41;;;21.11;47.86
57616;BME280;43816;52.054;-9.494;2024-02-15T00:22:08;99628.44;;;21.23;47.66
57616;BME280;43816;52.054;-9.494;2024-02-15T00:22:18;99653.19;;;21.42;48.03
57616;BME280;43816;52.054;-9.494;2024-02-15T00:22:43;99571.50;;;20.94;47.86
57616;BME280;43816;52.054;-9.494;2024-02-15T00:23:54;99670.84;;;21.53;47.84
57616;BME280;43816;52.054;-9.494;2024-02-15T00:24:07;99669.19;;;21.52;47.69
57616;BME280;43816;52.054;-9.494;2024-02-15T00:24:17;99609.72;;;21.14;47.77
57616;BME280;43816;52.054;-9.494;2024-02-15T00:24:28;99671.06;;;21.51;47.79
57616;BME280;43816;52.054;-9.494;2024-02-15T00:24:38;99583.66;;;21.04;48.01
57616;BME280;43816;52.054;-9.494;2024-02-15T00:24:48;99650.88;;;21.46;47.77
57616;BME280;43816;52.054;-9.494;2024-02-15T00:24:58;99678.63;;;21.56;47.82
57616;BME280;43816;52.054;-9.494;2024-02-15T00:25:09;99594.59;;;21.04;47.69
57616;BME280;43816;52.054;-9.494;2024-02-15T00:25:19;99648.56;;;21.42;47.83
57616;BME280;43816;52.054;-9.494;2024-02-15T00:26:03;99653.41;;;21.47;47.89
57616;BME280;43816;52.054;-9.494;2024-02-15T00:26:13;99608.84;;;21.20;47.89
57616;BME280;43816;52.054;-9.494;2024-02-15T00:26:23;99671.47;;;21.55;47.63
57616;BME280;43816;52.054;-9.494;2024-02-15T00:26:34;99615.59;;;21.24;47.71
57616;BME280;43816;52.054;-9.494;2024-02-15T00:26:44;99616.41;;;21.24;47.64
57616;BME280;43816;52.054;-9.494;2024-02-15T00:26:54;99674.00;;;21.56;47.98
57616;BME280;43816;52.054;-9.494;2024-02-15T00:27:05;99670.44;;;21.56;47.72
57616;BME280;43816;52.054;-9.494;2024-02-15T00:27:35;99665.16;;;21.54;47.75
57616;BME280;43816;52.054;-9.494;2024-02-15T00:27:46;99624.41;;;21.26;48.00
57616;BME280;43816;52.054;-9.494;2024-02-15T00:27:56;99651.91;;;21.44;47.74
57616;BME280;43816;52.054;-9.494;2024-02-15T00:28:06;99637.84;;;21.34;47.86
57616;BME280;43816;52.054;-9.494;2024-02-15T00:28:17;99574.84;;;20.96;47.74
57616;BME280;43816;52.054;-9.494;2024-02-15T00:28:47;99574.03;;;20.95;47.82
57616;BME280;43816;52.054;-9.494;2024-02-15T00:28:57;99608.41;;;21.23;47.77
57616;BME280;43816;52.054;-9.494;2024-02-15T00:29:08;99634.50;;;21.32;47.64
57616;BME280;43816;52.054;-9.494;2024-02-15T00:30:33;99658.00;;;21.47;47.87
57616;BME280;43816;52.054;-9.494;2024-02-15T00:30:43;99670.44;;;21.56;47.69
57616;BME280;43816;52.054;-9.494;2024-02-15T00:31:34;99663.06;;;21.50;47.90
57616;BME280;43816;52.054;-9.494;2024-02-15T00:31:44;99554.47;;;20.85;47.74
57616;BME280;43816;52.054;-9.494;2024-02-15T00:31:55;99660.13;;;21.51;47.88
57616;BME280;43816;52.054;-9.494;2024-02-15T00:32:05;99601.09;;;21.17;47.81
57616;BME280;43816;52.054;-9.494;2024-02-15T00:32:16;99640.78;;;21.39;47.71
57616;BME280;43816;52.054;-9.494;2024-02-15T00:32:26;99661.81;;;21.52;47.72
57616;BME280;43816;52.054;-9.494;2024-02-15T00:32:36;99655.25;;;21.47;47.97
57616;BME280;43816;52.054;-9.494;2024-02-15T00:32:47;99643.91;;;21.43;47.65
57616;BME280;43816;52.054;-9.494;2024-02-15T00:32:57;99638.25;;;21.38;47.84
57616;BME280;43816;52.054;-9.494;2024-02-15T00:33:07;99659.69;;;21.54;47.86
57616;BME280;43816;52.054;-9.494;2024-02-15T00:33:17;99649.16;;;21.44;47.80
57616;BME280;43816;52.054;-9.494;2024-02-15T00:33:48;99592.69;;;21.12;47.64
57616;BME280;43816;52.054;-9.494;2024-02-15T00:33:58;99664.13;;;21.55;47.74
57616;BME280;43816;52.054;-9.494;2024-02-15T00:34:08;99659.28;;;21.51;47.75
57616;BME280;43816;52.054;-9.494;2024-02-15T00:34:38;99588.28;;;21.11;47.76
57616;BME280;43816;52.054;-9.494;2024-02-15T00:34:48;99647.50;;;21.50;47.79
57616;BME280;43816;52.054;-9.494;2024-02-15T00:34:59;99653.81;;;21.51;47.59
57616;BME280;43816;52.054;-9.494;2024-02-15T00:35:09;99636.78;;;21.42;47.92
57616;BME280;43816;52.054;-9.494;2024-02-15T00:35:19;99655.50;;;21.52;47.79
57616;BME280;43816;52.054;-9.494;2024-02-15T00:35:29;99613.66;;;21.31;47.75
57616;BME280;43816;52.054;-9.494;2024-02-15T00:35:40;99642.47;;;21.47;47.53
57616;BME280;43816;52.054;-9.494;2024-02-15T00:35:50;99630.66;;;21.40;47.50
57616;BME280;43816;52.054;-9.494;2024-02-15T00:36:00;99625.84;;;21.35;47.70
57616;BME280;43816;52.054;-9.494;2024-02-15T00:36:11;99656.75;;;21.56;47.68
57616;BME280;43816;52.054;-9.494;2024-02-15T00:36:21;99655.91;;;21.55;47.74
57616;BME280;43816;52.054;-9.494;2024-02-15T00:36:31;99659.06;;;21.52;47.68
57616;BME280;43816;52.054;-9.494;2024-02-15T00:36:43;99660.53;;;21.55;47.79
57616;BME280;43816;52.054;-9.494;2024-02-15T00:36:53;99591.19;;;21.16;47.77
57616;BME280;43816;52.054;-9.494;2024-02-15T00:37:43;99525.50;;;20.70;47.43
57616;BME280;43816;52.054;-9.494;2024-02-15T00:37:53;99556.75;;;20.95;47.38
57616;BME280;43816;52.054;-9.494;2024-02-15T00:38:03;99632.16;;;21.36;47.91
57616;BME280;43816;52.054;-9.494;2024-02-15T00:38:13;99554.69;;;20.90;47.92
57616;BME280;43816;52.054;-9.494;2024-02-15T00:38:24;99642.25;;;21.42;47.55
57616;BME280;43816;52.054;-9.494;2024-02-15T00:38:34;99634.25;;;21.40;47.64
57616;BME280;43816;52.054;-9.494;2024-02-15T00:38:44;99654.88;;;21.50;48.03
57616;BME280;43816;52.054;-9.494;2024-02-15T00:38:55;99651.28;;;21.56;47.86
57616;BME280;43816;52.054;-9.494;2024-02-15T00:39:05;99667.69;;;21.56;47.76
57616;BME280;43816;52.054;-9.494;2024-02-15T00:39:16;99631.53;;;21.40;47.96
57616;BME280;43816;52.054;-9.494;2024-02-15T00:39:26;99653.81;;;21.51;47.86
57616;BME280;43816;52.054;-9.494;2024-02-15T00:39:36;99605.47;;;21.24;47.73
57616;BME280;43816;52.054;-9.494;2024-02-15T00:39:46;99663.03;;;21.56;47.80
57616;BME280;43816;52.054;-9.494;2024-02-15T00:39:57;99625.22;;;21.33;47.57
57616;BME280;43816;52.054;-9.494;2024-02-15T00:40:07;99657.56;;;21.56;47.55
57616;BME280;43816;52.054;-9.494;2024-02-15T00:40:18;99654.00;;;21.56;47.96
57616;BME280;43816;52.054;-9.494;2024-02-15T00:40:31;99644.78;;;21.43;47.74
57616;BME280;43816;52.054;-9.494;2024-02-15T00:40:41;99648.97;;;21.53;47.62
57616;BME280;43816;52.054;-9.494;2024-02-15T00:40:51;99639.53;;;21.49;47.84
57616;BME280;43816;52.054;-9.494;2024-02-15T00:41:22;99573.34;;;21.06;47.62
57616;BME280;43816;52.054;-9.494;2024-02-15T00:41:32;99561.00;;;20.91;47.54
57616;BME280;43816;52.054;-9.494;2024-02-15T00:41:42;99640.34;;;21.42;47.74
57616;BME280;43816;52.054;-9.494;2024-02-15T00:41:53;99587.84;;;21.14;47.73
57616;BME280;43816;52.054;-9.494;2024-02-15T00:42:03;99650.66;;;21.54;47.81
57616;BME280;43816;52.054;-9.494;2024-02-15T00:42:13;99638.00;;;21.46;47.81
57616;BME280;43816;52.054;-9.494;2024-02-15T00:42:24;99653.38;;;21.54;47.83
57616;BME280;43816;52.054;-9.494;2024-02-15T00:42:34;99649.81;;;21.53;47.60
57616;BME280;43816;52.054;-9.494;2024-02-15T00:42:44;99557.63;;;20.95;47.78
57616;BME280;43816;52.054;-9.494;2024-02-15T00:42:55;99638.66;;;21.48;47.74
57616;BME280;43816;52.054;-9.494;2024-02-15T00:43:08;99601.69;;;21.25;47.75
57616;BME280;43816;52.054;-9.494;2024-02-15T00:43:18;99651.69;;;21.53;47.68
57616;BME280;43816;52.054;-9.494;2024-02-15T00:43:28;99631.53;;;21.40;47.69
57616;BME280;43816;52.054;-9.494;2024-02-15T00:43:39;99650.66;;;21.54;47.43
57616;BME280;43816;52.054;-9.494;2024-02-15T00:43:49;99631.31;;;21.42;47.66
57616;BME280;43816;52.054;-9.494;2024-02-15T00:43:59;99650.66;;;21.54;47.69
57616;BME280;43816;52.054;-9.494;2024-02-15T00:44:10;99647.09;;;21.53;47.66
57616;BME280;43816;52.054;-9.494;2024-02-15T00:44:20;99637.81;;;21.48;47.63
57616;BME280;43816;52.054;-9.494;2024-02-15T00:44:30;99649.81;;;21.53;47.58
57616;BME280;43816;52.054;-9.494;2024-02-15T00:44:41;99646.22;;;21.53;47.75
57616;BME280;43816;52.054;-9.494;2024-02-15T00:44:51;99624.13;;;21.41;47.55
57616;BME280;43816;52.054;-9.494;2024-02-15T00:45:02;99655.69;;;21.57;47.53
57616;BME280;43816;52.054;-9.494;2024-02-15T00:45:25;99635.28;;;21.46;47.78
57616;BME280;43816;52.054;-9.494;2024-02-15T00:45:36;99608.41;;;21.30;47.90
57616;BME280;43816;52.054;-9.494;2024-02-15T00:45:46;99648.97;;;21.53;47.83
57616;BME280;43816;52.054;-9.494;2024-02-15T00:45:56;99636.09;;;21.47;47.83
57616;BME280;43816;52.054;-9.494;2024-02-15T00:46:06;99654.63;;;21.58;47.48
57616;BME280;43816;52.054;-9.494;2024-02-15T00:46:17;99610.50;;;21.34;47.64
57616;BME280;43816;52.054;-9.494;2024-02-15T00:46:27;99608.19;;;21.31;47.88
57616;BME280;43816;52.054;-9.494;2024-02-15T00:46:38;99634.03;;;21.42;47.65
57616;BME280;43816;52.054;-9.494;2024-02-15T00:46:48;99642.88;;;21.51;47.67
57616;BME280;43816;52.054;-9.494;2024-02-15T00:46:58;99651.88;;;21.58;47.72
57616;BME280;43816;52.054;-9.494;2024-02-15T00:47:11;99601.47;;;21.27;47.69
57616;BME280;43816;52.054;-9.494;2024-02-15T00:47:22;99635.72;;;21.50;47.58
57616;BME280;43816;52.054;-9.494;2024-02-15T00:47:32;99629.81;;;21.46;47.51
57616;BME280;43816;52.054;-9.494;2024-02-15T00:47:42;99639.09;;;21.52;47.60
57616;BME280;43816;52.054;-9.494;2024-02-15T00:47:52;99618.25;;;21.37;47.53
57616;BME280;43816;52.054;-9.494;2024-02-15T00:48:03;99633.19;;;21.48;47.76
57616;BME280;43816;52.054;-9.494;2024-02-15T00:48:13;99602.91;;;21.30;48.09
57616;BME280;43816;52.054;-9.494;2024-02-15T00:48:24;99649.16;;;21.58;47.81
57616;BME280;43816;52.054;-9.494;2024-02-15T00:48:34;99613.22;;;21.34;47.46
57616;BME280;43816;52.054;-9.494;2024-02-15T00:48:44;99602.91;;;21.30;47.63
57616;BME280;43816;52.054;-9.494;2024-02-15T00:48:55;99589.47;;;21.21;47.74
57616;BME280;43816;52.054;-9.494;2024-02-15T00:49:05;99602.91;;;21.30;47.52
57616;BME280;43816;52.054;-9.494;2024-02-15T00:49:15;99655.47;;;21.58;47.74
57616;BME280;43816;52.054;-9.494;2024-02-15T00:49:26;99627.28;;;21.44;47.65
57616;BME280;43816;52.054;-9.494;2024-02-15T00:49:36;99616.16;;;21.39;47.68
57616;BME280;43816;52.054;-9.494;2024-02-15T00:49:46;99632.34;;;21.48;47.69
57616;BME280;43816;52.054;-9.494;2024-02-15T00:49:56;99625.63;;;21.43;47.56
57616;BME280;43816;52.054;-9.494;2024-02-15T00:50:08;99628.97;;;21.46;47.76
57616;BME280;43816;52.054;-9.494;2024-02-15T00:50:18;99633.38;;;21.47;47.75
57616;BME280;43816;52.054;-9.494;2024-02-15T00:50:28;99650.44;;;21.55;47.75
57616;BME280;43816;52.054;-9.494;2024-02-15T00:50:39;99645.19;;;21.54;47.74
57616;BME280;43816;52.054;-9.494;2024-02-15T00:50:49;99619.72;;;21.40;47.58
57616;BME280;43816;52.054;-9.494;2024-02-15T00:50:59;99651.88;;;21.58;47.72
57616;BME280;43816;52.054;-9.494;2024-02-15T00:51:09;99649.16;;;21.58;47.72
57616;BME280;43816;52.054;-9.494;2024-02-15T00:52:00;99640.75;;;21.53;47.79
57616;BME280;43816;52.054;-9.494;2024-02-15T00:52:10;99563.47;;;21.05;47.54
57616;BME280;43816;52.054;-9.494;2024-02-15T00:52:20;99613.66;;;21.31;47.65
57616;BME280;43816;52.054;-9.494;2024-02-15T00:52:31;99649.56;;;21.55;47.90
57616;BME280;43816;52.054;-9.494;2024-02-15T00:52:41;99613.22;;;21.34;47.79
57616;BME280;43816;52.054;-9.494;2024-02-15T00:52:51;99644.09;;;21.55;47.79
57616;BME280;43816;52.054;-9.494;2024-02-15T00:54:35;99509.72;;;20.73;47.62
57616;BME280;43816;52.054;-9.494;2024-02-15T00:54:46;99567.25;;;21.04;47.67
57616;BME280;43816;52.054;-9.494;2024-02-15T00:54:57;99532.00;;;20.83;47.69
57616;BME280;43816;52.054;-9.494;2024-02-15T00:55:07;99642.88;;;21.51;47.57
57616;BME280;43816;52.054;-9.494;2024-02-15T00:55:18;99623.72;;;21.44;47.73
57616;BME280;43816;52.054;-9.494;2024-02-15T00:55:28;99642.44;;;21.54;47.69
57616;BME280;43816;52.054;-9.494;2024-02-15T00:55:38;99574.78;;;21.16;47.51
57616;BME280;43816;52.054;-9.494;2024-02-15T00:55:48;99568.72;;;21.07;47.78
57616;BME280;43816;52.054;-9.494;2024-02-15T00:55:59;99607.56;;;21.29;47.68
57616;BME280;43816;52.054;-9.494;2024-02-15T00:57:43;99528.63;;;20.81;47.53
57616;BME280;43816;52.054;-9.494;2024-02-15T00:57:53;99570.19;;;21.10;47.71
57616;BME280;43816;52.054;-9.494;2024-02-15T00:59:03;99573.78;;;21.10;47.82
57616;BME280;43816;52.054;-9.494;2024-02-15T00:59:15;99634.44;;;21.46;47.75
57616;BME280;43816;52.054;-9.494;2024-02-15T00:59:25;99627.28;;;21.44;47.79
57616;BME280;43816;52.054;-9.494;2024-02-15T00:59:35;99625.63;;;21.43;47.69
57616;BME280;43816;52.054;-9.494;2024-02-15T00:59:46;99647.69;;;21.55;47.65
57616;BME280;43816;52.054;-9.494;2024-02-15T00:59:56;99628.78;;;21.40;47.76
57616;BME280;43816;52.054;-9.494;2024-02-15T01:00:29;99558.84;;;21.06;47.62
57616;BME280;43816;52.054;-9.494;2024-02-15T01:02:16;99481.19;;;20.55;47.66
57616;BME280;43816;52.054;-9.494;2024-02-15T01:04:44;99580.88;;;21.18;47.85
57616;BME280;43816;52.054;-9.494;2024-02-15T01:04:54;99582.56;;;21.19;47.72
57616;BME280;43816;52.054;-9.494;2024-02-15T01:05:05;99524.66;;;20.83;47.79
57616;BME280;43816;52.054;-9.494;2024-02-15T01:05:19;99523.16;;;20.81;47.93
57616;BME280;43816;52.054;-9.494;2024-02-15T01:05:29;99478.44;;;20.55;47.61
57616;BME280;43816;52.054;-9.494;2024-02-15T01:10:22;99551.47;;;21.06;47.84
57616;BME280;43816;52.054;-9.494;2024-02-15T01:10:33;99601.66;;;21.32;47.91
57616;BME280;43816;52.054;-9.494;2024-02-15T01:10:46;99578.13;;;21.24;47.65
57616;BME280;43816;52.054;-9.494;2024-02-15T01:10:59;99609.00;;;21.38;47.67
57616;BME280;43816;52.054;-9.494;2024-02-15T01:11:10;99537.22;;;20.91;47.77
57616;BME280;43816;52.054;-9.494;2024-02-15T01:11:20;99468.38;;;20.49;47.69
57616;BME280;43816;52.054;-9.494;2024-02-15T01:11:31;99449.69;;;20.39;47.94
57616;BME280;43816;52.054;-9.494;2024-02-15T01:11:44;99454.31;;;20.39;47.70
57616;BME280;43816;52.054;-9.494;2024-02-15T01:12:49;99474.03;;;20.54;47.73
57616;BME280;43816;52.054;-9.494;2024-02-15T01:13:06;99475.94;;;20.54;47.94
57616;BME280;43816;52.054;-9.494;2024-02-15T01:13:19;99479.06;;;20.57;47.82
57616;BME280;43816;52.054;-9.494;2024-02-15T01:13:29;99475.06;;;20.53;47.78
57616;BME280;43816;52.054;-9.494;2024-02-15T01:13:42;99505.06;;;20.80;47.82
57616;BME280;43816;52.054;-9.494;2024-02-15T01:18:15;99489.19;;;20.63;47.74
57616;BME280;43816;52.054;-9.494;2024-02-15T01:22:11;99618.47;;;21.42;48.02
57616;BME280;43816;52.054;-9.494;2024-02-15T01:22:21;99622.41;;;21.47;47.81
57616;BME280;43816;52.054;-9.494;2024-02-15T01:22:32;99573.72;;;21.23;47.83
57616;BME280;43816;52.054;-9.494;2024-02-15T01:22:45;99565.34;;;21.12;47.82
57616;BME280;43816;52.054;-9.494;2024-02-15T01:25:37;99427.84;;;20.32;47.77
57616;BME280;43816;52.054;-9.494;2024-02-15T01:25:48;99457.63;;;20.54;47.79
57616;BME280;43816;52.054;-9.494;2024-02-15T01:25:58;99498.81;;;20.73;47.61
57616;BME280;43816;52.054;-9.494;2024-02-15T01:27:09;99602.25;;;21.41;47.88
57616;BME280;43816;52.054;-9.494;2024-02-15T01:27:19;99547.06;;;21.05;47.63
57616;BME280;43816;52.054;-9.494;2024-02-15T01:27:30;99564.47;;;21.18;47.92
57616;BME280;43816;52.054;-9.494;2024-02-15T01:27:49;99451.97;;;20.49;47.94
57616;BME280;43816;52.054;-9.494;2024-02-15T01:28:02;99436.66;;;20.41;47.64
57616;BME280;43816;52.054;-9.494;2024-02-15T01:28:12;99578.97;;;21.25;47.79
57616;BME280;43816;52.054;-9.494;2024-02-15T01:28:45;99545.56;;;21.10;47.78
57616;BME280;43816;52.054;-9.494;2024-02-15T01:28:59;99563.03;;;21.15;47.84
57616;BME280;43816;52.054;-9.494;2024-02-15T01:30:30;99563.00;;;21.22;47.80
57616;BME280;43816;52.054;-9.494;2024-02-15T01:30:40;99570.97;;;21.30;48.05
57616;BME280;43816;52.054;-9.494;2024-02-15T01:30:51;99606.69;;;21.49;47.83
57616;BME280;43816;52.054;-9.494;2024-02-15T01:32:35;99449.00;;;20.57;47.68
57616;BME280;43816;52.054;-9.494;2024-02-15T01:33:24;99575.13;;;21.33;47.79
57616;BME280;43816;52.054;-9.494;2024-02-15T01:33:34;99589.00;;;21.38;47.66
57616;BME280;43816;52.054;-9.494;2024-02-15T01:35:15;99531.69;;;21.04;47.48
57616;BME280;43816;52.054;-9.494;2024-02-15T01:35:27;99541.97;;;21.16;47.68
57616;BME280;43816;52.054;-9.494;2024-02-15T01:36:17;99609.81;;;21.52;47.79
57616;BME280;43816;52.054;-9.494;2024-02-15T01:36:28;99582.69;;;21.37;47.66
57616;BME280;43816;52.054;-9.494;2024-02-15T01:36:38;99566.13;;;21.25;47.79
57616;BME280;43816;52.054;-9.494;2024-02-15T01:36:48;99543.22;;;21.13;47.80
57616;BME280;43816;52.054;-9.494;2024-02-15T01:36:59;99599.91;;;21.51;47.80
57616;BME280;43816;52.054;-9.494;2024-02-15T01:37:09;99478.63;;;20.74;47.82
57616;BME280;43816;52.054;-9.494;2024-02-15T01:37:22;99599.53;;;21.48;47.61
57616;BME280;43816;52.054;-9.494;2024-02-15T01:37:33;99523.94;;;21.01;47.88
57616;BME280;43816;52.054;-9.494;2024-02-15T01:40:39;99604.56;;;21.51;47.76
57616;BME280;43816;52.054;-9.494;2024-02-15T01:40:49;99464.34;;;20.65;47.81
57616;BME280;43816;52.054;-9.494;2024-02-15T01:40:59;99605.00;;;21.48;47.68
57616;BME280;43816;52.054;-9.494;2024-02-15T01:41:09;99539.66;;;21.13;47.96
57616;BME280;43816;52.054;-9.494;2024-02-15T01:41:20;99600.34;;;21.48;47.95
57616;BME280;43816;52.054;-9.494;2024-02-15T01:42:30;99516.16;;;20.98;47.76
57616;BME280;43816;52.054;-9.494;2024-02-15T01:42:40;99531.69;;;21.04;47.68
57616;BME280;43816;52.054;-9.494;2024-02-15T01:42:51;99519.53;;;21.00;47.75
57616;BME280;43816;52.054;-9.494;2024-02-15T01:43:01;99583.75;;;21.36;47.99
57616;BME280;43816;52.054;-9.494;2024-02-15T01:43:11;99602.66;;;21.51;47.90
57616;BME280;43816;52.054;-9.494;2024-02-15T01:44:35;99482.81;;;20.76;47.74
57616;BME280;43816;52.054;-9.494;2024-02-15T01:45:21;99586.44;;;21.43;47.75
57616;BME280;43816;52.054;-9.494;2024-02-15T01:45:31;99597.78;;;21.47;48.12
57616;BME280;43816;52.054;-9.494;2024-02-15T01:47:43;99478.19;;;20.77;47.68
57616;BME280;43816;52.054;-9.494;2024-02-15T01:47:54;99601.81;;;21.51;48.00
57616;BME280;43816;52.054;-9.494;2024-02-15T01:48:04;99597.78;;;21.47;47.73
57616;BME280;43816;52.054;-9.494;2024-02-15T01:48:15;99575.09;;;21.39;47.86
57616;BME280;43816;52.054;-9.494;2024-02-15T01:48:26;99543.19;;;21.20;48.01
57616;BME280;43816;52.054;-9.494;2024-02-15T01:48:37;99568.41;;;21.35;47.60
57616;BME280;43816;52.054;-9.494;2024-02-15T01:49:09;99596.34;;;21.51;47.82